Ithaca, New York
Current Conditions -  °F | °C
As of 5:56 AM on Wednesday 22 Oct 2014 (Local Time) from KITH Reporting Station
Haze Haze  
Wind Chill:   Ceiling: 400
Heat Index:   Visibility: 6mi
Dew Point:   Wind: 7mph
Humidity: 100%   Direction: 360°N
Pressure: 30.06"   Gusts: NA
Location:  42.44°N, 76.49°W
Report Text: KITH 220956Z AUTO 36006KT 6SM BR OVC004 08/08 A3006 RMK AO2 T00830083 SLP184
Loading
Personal Weather Stations






























Interactive Weather Map
Tropical Storm Tracking
New forecast layout! Learn more

10-Day Weather Forecast

Advertisements
Track Severe Weather on mobile